Time;durP1;ratioP1;P1;durP2;ratioP2;P2;SDS_P1;SDS_P2;PMS_P1;PMS_P2;Temp;Humidity;BMP_temperature;BMP_pressure;BME280_temperature;BME280_humidity;BME280_pressure;Samples;Min_cycle;Max_cycle;Signal;HPM_P1;HPM_P2
2022/10/14 00:00:12;;;;;;;11.77;10.57;;;;;;;29.61;63.30;100611.88;5056935;28;70662;-44
2022/10/14 00:02:43;;;;;;;13.30;10.52;;;;;;;29.78;63.58;100631.97;5056420;28;66238;-43
2022/10/14 00:05:14;;;;;;;10.38;9.40;;;;;;;29.81;63.32;100631.53;5051042;28;70193;-45
2022/10/14 00:07:45;;;;;;;13.05;9.93;;;;;;;29.84;63.60;100644.63;5050784;28;66121;-45
2022/10/14 00:10:15;;;;;;;14.88;9.30;;;;;;;29.89;64.17;100652.06;5055009;28;70122;-45
2022/10/14 00:12:46;;;;;;;15.98;10.35;;;;;;;29.80;64.37;100627.16;5052871;28;66371;-44
2022/10/14 00:15:17;;;;;;;10.27;9.48;;;;;;;29.89;64.56;100640.41;5053489;28;70517;-43
2022/10/14 00:17:47;;;;;;;11.05;10.00;;;;;;;29.96;64.41;100663.66;5055235;28;65846;-43
2022/10/14 00:20:18;;;;;;;10.00;9.18;;;;;;;29.99;64.61;100673.22;5051343;28;70334;-43
2022/10/14 00:22:48;;;;;;;9.98;9.00;;;;;;;30.01;63.98;100680.06;5052748;28;66108;-43
2022/10/14 00:25:19;;;;;;;9.98;9.15;;;;;;;30.02;64.53;100678.19;5055246;28;70443;-42
2022/10/14 00:27:49;;;;;;;11.13;10.02;;;;;;;30.03;64.64;100667.16;5054368;28;66508;-43
2022/10/14 00:30:20;;;;;;;11.13;10.00;;;;;;;30.06;64.08;100665.84;5057507;28;69820;-43
2022/10/14 00:32:51;;;;;;;10.25;9.48;;;;;;;30.03;64.17;100666.31;5055540;28;67113;-43
2022/10/14 00:35:22;;;;;;;10.98;9.95;;;;;;;30.06;64.72;100669.41;5055674;28;70291;-44
2022/10/14 00:37:53;;;;;;;11.00;9.37;;;;;;;30.03;64.24;100663.59;5052612;28;66209;-43
2022/10/14 00:40:25;;;;;;;10.45;9.55;;;;;;;30.08;64.24;100663.78;5052933;28;69664;-42
2022/10/14 00:42:55;;;;;;;9.70;8.85;;;;;;;30.08;64.23;100671.06;5054076;28;66074;-43
2022/10/14 00:45:26;;;;;;;9.95;9.25;;;;;;;30.10;64.17;100672.50;5056061;28;70677;-43
2022/10/14 00:47:56;;;;;;;9.77;8.95;;;;;;;30.08;64.43;100661.06;5052780;28;66913;-43
2022/10/14 00:50:27;;;;;;;9.93;9.13;;;;;;;30.03;64.14;100648.22;5055525;28;69971;-43
2022/10/14 00:52:59;;;;;;;10.07;9.18;;;;;;;30.12;64.01;100656.06;5054249;28;65984;-42
2022/10/14 00:55:30;;;;;;;9.90;8.60;;;;;;;29.97;64.47;100629.31;5056978;28;70263;-42
2022/10/14 00:58:01;;;;;;;9.83;9.00;;;;;;;30.13;63.80;100655.84;5055001;28;65911;-43
2022/10/14 01:00:31;;;;;;;10.18;9.32;;;;;;;30.16;63.65;100657.28;5052808;28;69452;-43
2022/10/14 01:03:17;;;;;;;9.40;8.60;;;;;;;29.60;63.54;100567.81;5052178;28;66386;-43
2022/10/14 01:06:09;;;;;;;8.93;8.32;;;;;;;30.12;63.76;100665.00;5056025;28;70729;-42
2022/10/14 01:08:44;;;;;;;9.93;9.02;;;;;;;30.14;63.87;100660.19;5055582;28;66450;-42
2022/10/14 01:11:51;;;;;;;9.13;8.48;;;;;;;29.95;64.06;100656.59;5055452;28;70426;-48
2022/10/14 01:15:03;;;;;;;9.13;8.18;;;;;;;30.05;64.26;100664.22;5050954;28;65780;-41
2022/10/14 01:17:52;;;;;;;9.27;8.57;;;;;;;30.17;63.58;100670.59;5056053;28;70404;-44
2022/10/14 01:21:11;;;;;;;9.32;8.50;;;;;;;30.00;64.43;100658.63;5051873;28;66629;-43
2022/10/14 01:24:09;;;;;;;9.23;8.35;;;;;;;30.13;64.02;100673.94;5047964;28;70361;-43
2022/10/14 01:26:58;;;;;;;8.93;8.35;;;;;;;30.11;63.62;100674.16;5056571;28;65119;-43
2022/10/14 01:30:18;;;;;;;8.63;8.05;;;;;;;30.02;64.37;100681.72;5062914;27;70097;-43
2022/10/14 01:32:51;;;;;;;9.50;8.70;;;;;;;30.23;64.15;100680.56;5003879;28;65915;-43
2022/10/14 01:35:31;;;;;;;9.32;8.30;;;;;;;30.23;63.63;100685.97;4996148;28;69668;-42
2022/10/14 01:38:11;;;;;;;9.93;8.70;;;;;;;29.92;63.33;100612.94;5033235;28;66677;-41
2022/10/14 01:40:49;;;;;;;;;;;;;;;29.89;64.66;100683.69;5053249;28;70559;-41
2022/10/14 01:43:23;;;;;;;9.35;8.68;;;;;;;30.26;63.82;100696.34;5053781;28;66171;-41
2022/10/14 01:45:56;;;;;;;8.45;7.95;;;;;;;30.31;63.54;100697.53;5053680;28;70045;-42
2022/10/14 01:48:32;;;;;;;8.35;7.65;;;;;;;29.43;63.53;100550.47;5048070;28;66897;-42
2022/10/14 01:51:10;;;;;;;9.18;8.30;;;;;;;30.02;63.53;100645.72;5068127;27;69947;-42
2022/10/14 01:53:55;;;;;;;8.73;8.10;;;;;;;30.33;63.28;100685.44;5057025;28;66525;-42
2022/10/14 01:56:29;;;;;;;8.95;8.30;;;;;;;30.39;63.12;100689.97;5055489;27;70156;-44
2022/10/14 01:59:02;;;;;;;8.77;8.07;;;;;;;30.43;63.35;100695.78;5055682;28;65364;-43
2022/10/14 02:01:33;;;;;;;8.30;7.80;;;;;;;30.38;63.80;100682.91;5055068;28;70308;-42
2022/10/14 02:04:15;;;;;;;8.50;7.83;;;;;;;30.38;63.06;100687.50;5054258;28;66877;-42
2022/10/14 02:07:09;;;;;;;8.25;7.65;;;;;;;30.45;63.57;100682.84;5048371;28;70644;-41
2022/10/14 02:10:09;;;;;;;8.38;7.88;;;;;;;29.96;63.58;100595.22;5048967;28;66511;-42
2022/10/14 02:13:06;;;;;;;8.18;7.68;;;;;;;30.51;63.40;100676.56;5054587;28;70436;-42
2022/10/14 02:16:11;;;;;;;7.78;7.30;;;;;;;30.39;63.54;100656.66;5052426;28;66375;-41
2022/10/14 02:18:57;;;;;;;8.00;7.40;;;;;;;30.48;63.24;100668.91;5050352;28;69232;-41
2022/10/14 02:22:03;;;;;;;8.18;7.57;;;;;;;30.38;63.41;100665.84;5055380;28;66865;-41
2022/10/14 02:24:54;;;;;;;8.15;7.45;;;;;;;30.60;62.98;100666.28;5027675;28;69936;-41
2022/10/14 02:27:27;;;;;;;8.80;7.93;;;;;;;30.12;63.01;100581.16;5052578;28;66604;-42
2022/10/14 02:29:59;;;;;;;7.90;7.40;;;;;;;30.66;63.06;100679.72;5064095;28;69272;-41
2022/10/14 02:32:32;;;;;;;8.17;7.50;;;;;;;30.68;63.08;100671.41;5054606;28;66443;-42
2022/10/14 02:35:05;;;;;;;8.50;7.90;;;;;;;30.70;62.79;100669.28;5050386;28;70076;-43
2022/10/14 02:37:37;;;;;;;8.52;7.93;;;;;;;30.29;63.04;100603.06;5052768;28;66128;-43
2022/10/14 02:40:14;;;;;;;7.60;7.10;;;;;;;30.76;62.42;100683.78;5048606;28;70018;-41
2022/10/14 02:42:44;;;;;;;7.55;7.03;;;;;;;30.77;62.89;100674.63;5055894;28;66061;-42
2022/10/14 02:45:16;;;;;;;7.70;7.10;;;;;;;30.80;62.84;100680.47;5052676;28;70281;-42
2022/10/14 02:47:46;;;;;;;8.25;7.63;;;;;;;30.79;62.86;100683.38;5036340;28;65648;-41
2022/10/14 02:50:18;;;;;;;7.67;7.13;;;;;;;30.82;62.85;100674.81;5050766;28;70507;-42
2022/10/14 02:52:48;;;;;;;7.97;7.40;;;;;;;30.58;62.26;100616.94;5068446;27;66266;-41
2022/10/14 02:55:18;;;;;;;7.45;6.95;;;;;;;30.84;62.39;100656.44;5051076;28;70592;-41
2022/10/14 02:57:49;;;;;;;7.22;6.72;;;;;;;30.92;62.62;100661.56;5055773;28;66208;-41
2022/10/14 03:00:20;;;;;;;7.85;7.35;;;;;;;30.93;62.31;100657.81;5057331;28;70159;-44
2022/10/14 03:02:50;;;;;;;8.00;7.40;;;;;;;30.96;62.63;100649.25;5055329;28;66278;-42
2022/10/14 03:05:21;;;;;;;7.75;7.22;;;;;;;30.98;62.00;100651.72;5054416;28;69979;-41
2022/10/14 03:07:52;;;;;;;8.40;7.72;;;;;;;31.01;62.21;100643.97;5042029;28;66477;-41
2022/10/14 03:10:23;;;;;;;;;;;;;;;30.62;63.58;100639.78;5054340;28;70255;-43
2022/10/14 03:12:55;;;;;;;7.05;6.60;;;;;;;30.98;62.60;100636.31;5055327;28;65381;-42
2022/10/14 03:15:34;;;;;;;7.22;6.53;;;;;;;30.82;62.32;100591.69;5036280;28;69249;-41
2022/10/14 03:18:06;;;;;;;9.77;7.25;;;;;;;31.01;62.40;100619.59;5057080;28;66139;-41
2022/10/14 03:20:45;;;;;;;6.93;6.43;;;;;;;31.09;62.05;100630.13;5055650;28;70086;-41
2022/10/14 03:23:23;;;;;;;7.55;7.03;;;;;;;31.12;62.31;100629.66;5051683;28;66031;-44
2022/10/14 03:25:55;;;;;;;7.07;6.43;;;;;;;31.14;62.22;100630.25;5055150;28;70332;-43
2022/10/14 03:28:47;;;;;;;6.80;6.40;;;;;;;31.15;61.76;100626.50;5054320;28;66459;-41
2022/10/14 03:31:23;;;;;;;7.85;7.10;;;;;;;31.21;62.06;100619.34;5053705;28;69869;-44
2022/10/14 03:34:11;;;;;;;8.00;7.40;;;;;;;31.23;61.86;100613.66;5055299;28;66426;-42
2022/10/14 03:36:43;;;;;;;7.32;6.88;;;;;;;31.04;61.87;100573.09;5040358;28;69822;-43
2022/10/14 03:39:14;;;;;;;7.17;6.67;;;;;;;31.23;61.62;100597.41;5051679;28;66206;-43
2022/10/14 03:41:49;;;;;;;6.68;6.18;;;;;;;31.23;61.58;100583.88;5040098;28;70123;-42
2022/10/14 03:44:24;;;;;;;7.20;6.70;;;;;;;31.32;61.50;100590.63;5054327;28;65356;-42
2022/10/14 03:47:20;;;;;;;6.93;6.53;;;;;;;31.35;61.48;100601.00;5050091;28;68992;-42
2022/10/14 03:49:51;;;;;;;7.18;6.68;;;;;;;31.36;61.71;100586.44;5054518;28;66708;-43
2022/10/14 03:52:43;;;;;;;7.15;6.65;;;;;;;31.38;61.35;100584.31;5056586;28;69514;-41
2022/10/14 03:55:23;;;;;;;7.22;6.78;;;;;;;31.43;61.24;100579.03;5057167;28;65898;-41
2022/10/14 03:57:54;;;;;;;6.55;6.15;;;;;;;31.43;61.23;100570.91;5055611;28;69927;-42
2022/10/14 04:00:24;;;;;;;8.68;7.82;;;;;;;31.47;61.30;100561.25;5055843;28;65722;-41
2022/10/14 04:03:09;;;;;;;7.22;6.75;;;;;;;31.40;61.21;100544.28;5067653;28;69822;-44
2022/10/14 04:05:43;;;;;;;7.75;7.10;;;;;;;31.52;61.36;100553.25;5053118;28;66545;-42
2022/10/14 04:08:20;;;;;;;7.60;6.82;;;;;;;31.51;61.10;100548.88;5054092;28;70303;-42
2022/10/14 04:10:58;;;;;;;7.53;6.72;;;;;;;31.53;61.35;100538.63;5051355;28;66649;-42
2022/10/14 04:13:35;;;;;;;6.97;6.47;;;;;;;31.52;61.17;100525.31;5070651;27;69358;-41
2022/10/14 04:16:08;;;;;;;8.18;7.47;;;;;;;31.50;61.27;100511.97;5040996;28;65084;-43
2022/10/14 04:18:56;;;;;;;7.18;6.68;;;;;;;31.58;61.21;100525.19;5054251;28;70318;-42
2022/10/14 04:21:27;;;;;;;7.95;7.30;;;;;;;31.51;61.20;100508.22;5073588;27;65845;-42
2022/10/14 04:23:59;;;;;;;7.47;6.97;;;;;;;31.62;60.78;100517.41;5052502;28;69984;-43
2022/10/14 04:26:42;;;;;;;7.80;7.25;;;;;;;31.60;61.18;100506.81;5053230;28;65770;-43
2022/10/14 04:29:20;;;;;;;13.80;7.40;;;;;;;31.65;60.92;100502.56;5055125;28;70620;-41
2022/10/14 04:31:57;;;;;;;8.07;7.30;;;;;;;31.67;60.69;100505.88;5058181;27;65611;-41
2022/10/14 04:34:29;;;;;;;13.13;7.30;;;;;;;31.69;61.26;100503.75;5039980;28;69873;-43
2022/10/14 04:37:00;;;;;;;7.53;7.00;;;;;;;31.70;60.84;100494.56;5057043;28;66071;-43
2022/10/14 04:39:50;;;;;;;7.78;7.10;;;;;;;31.70;61.00;100486.41;5025636;28;69356;-43
2022/10/14 04:42:21;;;;;;;7.25;6.60;;;;;;;31.65;60.87;100473.59;5055373;28;66307;-43
2022/10/14 04:44:56;;;;;;;7.05;6.55;;;;;;;31.72;60.81;100482.41;5039122;28;69642;-43
2022/10/14 04:47:39;;;;;;;7.05;6.53;;;;;;;31.75;60.87;100487.34;5067405;27;67175;-43
2022/10/14 04:50:19;;;;;;;7.43;6.80;;;;;;;31.74;60.86;100480.28;5056457;28;69788;-41
2022/10/14 04:53:07;;;;;;;7.22;6.63;;;;;;;31.73;60.62;100477.81;5053893;28;66457;-42
2022/10/14 04:55:55;;;;;;;7.80;6.80;;;;;;;31.78;60.64;100480.63;5057178;28;70104;-45
2022/10/14 04:58:25;;;;;;;7.38;6.90;;;;;;;31.79;60.69;100482.31;5054405;28;65983;-43
2022/10/14 05:00:57;;;;;;;7.28;6.88;;;;;;;31.79;60.63;100485.03;5055262;28;70051;-42
2022/10/14 05:03:33;;;;;;;7.93;7.43;;;;;;;31.79;60.77;100471.47;5048548;28;66714;-44
2022/10/14 05:06:03;;;;;;;7.32;6.70;;;;;;;31.74;60.56;100458.59;5055502;28;70247;-41
2022/10/14 05:08:37;;;;;;;7.25;6.72;;;;;;;31.76;60.61;100472.75;5052530;28;66091;-43
2022/10/14 05:11:11;;;;;;;7.00;6.47;;;;;;;31.86;60.86;100468.63;5052606;28;70191;-41
2022/10/14 05:13:48;;;;;;;7.13;6.63;;;;;;;31.86;60.66;100472.16;5069016;27;66219;-43
2022/10/14 05:16:19;;;;;;;7.83;7.27;;;;;;;31.87;60.72;100462.13;5067323;27;70005;-42
2022/10/14 05:18:50;;;;;;;7.22;6.68;;;;;;;31.89;60.68;100452.69;5067845;27;65724;-42
2022/10/14 05:21:21;;;;;;;7.43;6.93;;;;;;;31.89;60.33;100449.97;5054044;28;71205;-41
2022/10/14 05:23:57;;;;;;;7.72;7.03;;;;;;;31.82;60.41;100438.44;5052493;28;66388;-42
2022/10/14 05:26:31;;;;;;;7.50;6.85;;;;;;;31.91;60.51;100445.19;5056411;28;70271;-44
2022/10/14 05:29:06;;;;;;;8.30;6.88;;;;;;;31.95;60.55;100440.91;5053178;28;65577;-42
2022/10/14 05:31:39;;;;;;;7.43;6.85;;;;;;;31.95;60.60;100440.91;5052320;28;70128;-42
2022/10/14 05:34:30;;;;;;;;;;;;;;;31.61;61.37;100435.25;5054482;28;65875;-43
2022/10/14 05:37:03;;;;;;;7.50;6.78;;;;;;;31.93;60.74;100429.50;5051050;28;70038;-42
2022/10/14 05:39:43;;;;;;;9.38;7.13;;;;;;;31.95;60.46;100419.22;5050405;28;65727;-43
2022/10/14 05:42:16;;;;;;;7.38;6.88;;;;;;;32.04;60.25;100425.13;5054042;28;69836;-41
2022/10/14 05:44:48;;;;;;;7.68;6.97;;;;;;;31.98;60.39;100415.19;5055936;28;66062;-43
2022/10/14 05:47:18;;;;;;;8.18;7.47;;;;;;;32.08;59.95;100426.28;5050912;28;70091;-42
2022/10/14 05:49:53;;;;;;;7.00;6.60;;;;;;;32.10;60.18;100423.34;5054475;28;66523;-42
2022/10/14 05:52:24;;;;;;;6.97;6.30;;;;;;;32.02;60.27;100410.97;5052503;28;69384;-44
2022/10/14 05:54:55;;;;;;;6.95;6.22;;;;;;;32.12;60.30;100422.00;5055899;28;65176;-42
2022/10/14 05:57:28;;;;;;;6.75;6.35;;;;;;;32.09;60.11;100410.81;5053811;28;69846;-42
2022/10/14 06:00:05;;;;;;;6.93;6.20;;;;;;;31.75;60.21;100350.94;5055929;28;66729;-42
2022/10/14 06:02:45;;;;;;;7.18;6.57;;;;;;;31.96;60.09;100374.75;5054040;28;69508;-43
2022/10/14 06:05:18;;;;;;;6.72;6.32;;;;;;;32.21;60.11;100404.31;5056307;28;65871;-42
2022/10/14 06:07:48;;;;;;;6.80;6.40;;;;;;;32.16;60.17;100392.53;5051304;28;70202;-42
2022/10/14 06:10:19;;;;;;;6.93;6.43;;;;;;;31.86;60.05;100339.25;5055786;28;66061;-42
2022/10/14 06:12:49;;;;;;;7.28;6.72;;;;;;;32.26;60.03;100400.84;5056423;28;70410;-43
2022/10/14 06:15:21;;;;;;;7.72;6.78;;;;;;;32.25;59.82;100391.88;5049451;28;66862;-42
2022/10/14 06:17:52;;;;;;;7.00;6.50;;;;;;;32.27;60.09;100391.66;5053544;28;71337;-43
2022/10/14 06:20:24;;;;;;;;;;;;;;;31.95;60.60;100383.94;5035972;28;65882;-42
2022/10/14 06:22:54;;;;;;;7.57;6.95;;;;;;;32.28;60.08;100382.44;5052568;28;70513;-42
2022/10/14 06:25:25;;;;;;;7.13;6.65;;;;;;;32.32;59.92;100378.19;5054956;28;66132;-43
2022/10/14 06:28:01;;;;;;;6.65;6.25;;;;;;;32.08;59.57;100339.44;5052129;28;70000;-46
2022/10/14 06:30:32;;;;;;;7.20;6.53;;;;;;;32.30;59.73;100369.44;5045603;28;66059;-42
2022/10/14 06:33:05;;;;;;;6.40;6.00;;;;;;;32.05;59.77;100324.47;5058639;28;69671;-41
2022/10/14 06:35:36;;;;;;;6.90;6.30;;;;;;;32.39;59.84;100378.84;5056276;28;66329;-41
2022/10/14 06:38:06;;;;;;;7.05;6.35;;;;;;;32.41;59.84;100382.16;5058292;28;68993;-41
2022/10/14 06:40:37;;;;;;;6.38;5.88;;;;;;;32.37;60.03;100367.41;5059563;28;65853;-41
2022/10/14 06:43:07;;;;;;;12.40;6.47;;;;;;;32.38;59.60;100371.78;5053831;28;70762;-41
2022/10/14 06:45:38;;;;;;;6.43;6.00;;;;;;;32.42;59.64;100372.94;5058240;28;65426;-41
2022/10/14 06:48:09;;;;;;;7.07;6.57;;;;;;;32.32;59.76;100345.63;5055689;28;69546;-41
2022/10/14 06:50:40;;;;;;;6.72;6.28;;;;;;;32.34;59.43;100346.19;5056859;28;66791;-41
2022/10/14 06:53:10;;;;;;;7.28;6.63;;;;;;;32.48;59.67;100366.59;5058863;28;70971;-41
2022/10/14 06:55:41;;;;;;;7.17;6.67;;;;;;;32.39;59.96;100346.28;5058577;28;65698;-41
2022/10/14 06:58:12;;;;;;;6.32;5.93;;;;;;;32.51;59.57;100359.81;5055361;28;70139;-41
2022/10/14 07:00:42;;;;;;;6.72;6.32;;;;;;;32.44;59.40;100343.66;5058872;28;65579;-41
2022/10/14 07:03:16;;;;;;;7.32;6.82;;;;;;;32.54;59.61;100353.06;5048207;28;70197;-41
2022/10/14 07:05:47;;;;;;;6.13;5.80;;;;;;;32.53;59.56;100352.25;5055923;28;66145;-41
2022/10/14 07:08:18;;;;;;;6.65;6.25;;;;;;;32.55;59.38;100354.75;5053203;28;69095;-41
2022/10/14 07:10:48;;;;;;;7.57;6.68;;;;;;;32.45;59.51;100339.03;5052099;28;66100;-41
2022/10/14 07:13:19;;;;;;;7.47;6.80;;;;;;;32.55;59.59;100350.13;5056729;28;70304;-41
2022/10/14 07:15:51;;;;;;;7.55;6.78;;;;;;;32.53;59.62;100340.59;5056610;28;65282;-41
2022/10/14 07:18:21;;;;;;;7.40;6.90;;;;;;;32.55;59.53;100346.59;5054385;28;70031;-41
2022/10/14 07:20:52;;;;;;;7.75;7.07;;;;;;;32.57;59.62;100347.16;5058400;28;66369;-40
2022/10/14 07:23:23;;;;;;;7.37;6.83;;;;;;;32.56;59.61;100345.53;5054853;28;70060;-41
2022/10/14 07:25:58;;;;;;;7.13;6.57;;;;;;;32.56;59.32;100340.91;5054179;28;65821;-41
2022/10/14 07:28:28;;;;;;;7.93;6.93;;;;;;;32.57;59.53;100337.13;5059076;28;70424;-44
2022/10/14 07:31:06;;;;;;;7.38;6.68;;;;;;;32.52;59.57;100333.50;5057192;28;65013;-43
2022/10/14 07:33:38;;;;;;;6.72;6.18;;;;;;;32.55;59.54;100333.03;5056557;28;69293;-41
2022/10/14 07:36:15;;;;;;;7.13;6.63;;;;;;;32.44;59.78;100316.50;5056206;28;67050;-43
2022/10/14 07:38:51;;;;;;;7.05;6.45;;;;;;;32.56;59.35;100335.47;5055018;28;69251;-42
2022/10/14 07:41:24;;;;;;;7.55;6.88;;;;;;;32.00;59.33;100228.59;5055468;28;66320;-41
2022/10/14 07:44:01;;;;;;;6.60;6.20;;;;;;;32.59;59.34;100336.88;5054001;28;70234;-41
2022/10/14 07:46:34;;;;;;;7.60;6.90;;;;;;;32.19;59.44;100269.91;5054257;28;65283;-41
2022/10/14 07:49:18;;;;;;;6.65;6.25;;;;;;;32.51;59.33;100321.81;5055037;28;70162;-43
2022/10/14 07:51:49;;;;;;;7.25;6.75;;;;;;;32.60;59.52;100341.25;5056141;28;65892;-41
2022/10/14 07:54:25;;;;;;;7.25;6.75;;;;;;;32.14;59.35;100261.69;5056268;28;70281;-42
2022/10/14 07:56:56;;;;;;;7.57;7.03;;;;;;;32.63;59.51;100343.47;5052886;28;66581;-41
2022/10/14 07:59:27;;;;;;;7.10;6.50;;;;;;;32.62;59.62;100333.66;5049940;28;70442;-41
2022/10/14 08:01:58;;;;;;;7.32;6.72;;;;;;;32.62;59.43;100334.50;5046510;28;66406;-43
2022/10/14 08:04:29;;;;;;;6.97;6.55;;;;;;;32.65;59.46;100341.31;5051376;28;70886;-41
2022/10/14 08:07:00;;;;;;;8.85;7.05;;;;;;;32.63;59.33;100341.59;5051918;28;65323;-41
2022/10/14 08:09:30;;;;;;;6.97;6.53;;;;;;;32.63;59.37;100340.78;5053360;28;70431;-43
2022/10/14 08:12:01;;;;;;;7.30;6.80;;;;;;;32.62;59.37;100330.94;5053442;28;65982;-43
2022/10/14 08:14:31;;;;;;;7.15;6.65;;;;;;;32.65;59.37;100339.47;5054732;28;69463;-42
2022/10/14 08:17:02;;;;;;;6.82;6.40;;;;;;;32.64;59.04;100334.25;5056901;28;66659;-43
2022/10/14 08:19:33;;;;;;;7.80;6.40;;;;;;;32.62;59.26;100339.09;5054970;28;70279;-42
2022/10/14 08:22:03;;;;;;;7.53;6.90;;;;;;;32.65;59.30;100333.19;5057231;28;65331;-42
2022/10/14 08:24:34;;;;;;;6.23;5.83;;;;;;;32.62;59.44;100330.94;5052933;28;71631;-41
2022/10/14 08:27:06;;;;;;;7.43;6.80;;;;;;;32.52;59.34;100317.22;5054326;28;66241;-41
2022/10/14 08:29:37;;;;;;;7.13;6.60;;;;;;;32.61;59.35;100332.03;5055051;28;70175;-41
2022/10/14 08:32:08;;;;;;;7.27;6.50;;;;;;;32.53;59.43;100318.84;5052711;28;65519;-41
2022/10/14 08:34:39;;;;;;;6.95;6.45;;;;;;;32.55;59.29;100316.72;5055029;28;69633;-41
2022/10/14 08:37:11;;;;;;;7.55;6.95;;;;;;;32.63;59.14;100328.00;5056362;28;66250;-41
2022/10/14 08:39:42;;;;;;;7.22;6.60;;;;;;;32.61;59.16;100329.31;5053432;28;70299;-41
2022/10/14 08:42:36;;;;;;;7.18;6.63;;;;;;;32.08;59.31;100257.25;5053239;28;65621;-41
2022/10/14 08:45:25;;;;;;;6.93;6.30;;;;;;;32.49;59.10;100303.06;5052030;28;68875;-41
2022/10/14 08:47:58;;;;;;;7.32;6.72;;;;;;;32.13;59.50;100238.34;5055137;28;66357;-43
2022/10/14 08:50:50;;;;;;;7.65;6.93;;;;;;;32.52;59.39;100311.78;5055793;28;70102;-41
2022/10/14 08:53:32;;;;;;;;;;;;;;;32.27;60.16;100308.34;5049504;28;66293;-42
2022/10/14 08:56:02;;;;;;;8.18;7.57;;;;;;;32.54;59.41;100304.19;5055840;28;69404;-41
2022/10/14 08:58:39;;;;;;;9.13;7.20;;;;;;;32.56;59.31;100308.31;5051968;28;64975;-43
2022/10/14 09:01:27;;;;;;;7.97;7.43;;;;;;;32.57;59.24;100298.28;5056456;28;70512;-41
2022/10/14 09:04:12;;;;;;;7.80;7.10;;;;;;;32.52;59.38;100300.94;5064263;27;66112;-41
2022/10/14 09:06:46;;;;;;;7.05;6.53;;;;;;;32.47;59.52;100283.47;5044509;28;70283;-41
2022/10/14 09:09:26;;;;;;;7.35;6.72;;;;;;;32.53;59.32;100316.16;5053474;28;65697;-42
2022/10/14 09:12:00;;;;;;;6.80;6.30;;;;;;;32.47;59.08;100299.75;5053885;28;69038;-42
2022/10/14 09:14:38;;;;;;;6.80;6.22;;;;;;;32.56;59.12;100321.06;5052207;28;66661;-42
2022/10/14 09:17:21;;;;;;;6.60;6.10;;;;;;;32.13;59.38;100260.06;5054356;28;70617;-42
2022/10/14 09:19:59;;;;;;;7.40;6.70;;;;;;;32.06;59.37;100238.47;5054467;28;65690;-42
2022/10/14 09:22:30;;;;;;;7.47;6.78;;;;;;;32.47;59.60;100310.63;5046083;28;69701;-42
2022/10/14 09:25:00;;;;;;;6.93;6.45;;;;;;;32.46;59.50;100317.13;5055254;28;66663;-42
2022/10/14 09:27:34;;;;;;;7.07;6.68;;;;;;;32.24;61.17;100327.81;5051382;28;43720;-42
2022/10/14 09:30:09;;;;;;;9.68;7.93;;;;;;;32.04;62.01;100327.44;5054788;28;66194;-43
2022/10/14 09:32:49;;;;;;;7.82;7.13;;;;;;;31.51;62.76;100261.53;5053505;28;69238;-42
2022/10/14 09:35:23;;;;;;;8.13;7.43;;;;;;;31.94;62.76;100349.75;5049898;28;66677;-43
2022/10/14 09:37:54;;;;;;;8.98;8.27;;;;;;;31.76;63.39;100325.47;5052242;28;69989;-42
2022/10/14 09:40:36;;;;;;;8.25;7.57;;;;;;;31.36;63.36;100282.88;5053029;28;65954;-42
2022/10/14 09:43:09;;;;;;;8.82;7.82;;;;;;;31.80;63.29;100348.34;5052784;28;70538;-42
2022/10/14 09:46:06;;;;;;;10.35;7.95;;;;;;;31.73;63.94;100353.06;5065939;27;66075;-43
2022/10/14 09:48:42;;;;;;;8.43;7.70;;;;;;;31.71;63.55;100358.75;5052527;28;70068;-43
2022/10/14 09:51:27;;;;;;;9.00;8.20;;;;;;;31.69;63.64;100357.34;5050425;28;65741;-43
2022/10/14 09:54:00;;;;;;;8.43;7.72;;;;;;;31.69;64.08;100358.16;5048224;28;69647;-44
2022/10/14 09:56:41;;;;;;;7.78;7.30;;;;;;;31.64;63.96;100365.34;5055527;28;66295;-43
2022/10/14 09:59:22;;;;;;;7.78;7.25;;;;;;;31.20;63.87;100302.53;5055343;28;69749;-44
2022/10/14 10:01:56;;;;;;;8.07;7.57;;;;;;;31.61;63.85;100377.50;5052865;28;66127;-44
2022/10/14 10:04:46;;;;;;;9.18;7.80;;;;;;;31.54;63.89;100372.22;5053550;28;70370;-43
2022/10/14 10:07:31;;;;;;;8.80;7.97;;;;;;;31.49;63.75;100380.22;5052425;28;65124;-43
2022/10/14 10:10:24;;;;;;;10.80;7.85;;;;;;;31.06;63.64;100297.34;5052504;28;70148;-43
2022/10/14 10:12:54;;;;;;;14.57;8.45;;;;;;;31.49;63.88;100374.78;5054234;28;66260;-43
2022/10/14 10:15:25;;;;;;;9.10;8.20;;;;;;;31.48;64.02;100372.31;5054196;28;70210;-43
2022/10/14 10:17:56;;;;;;;14.65;7.78;;;;;;;31.19;63.78;100328.81;5051376;28;66185;-43
2022/10/14 10:20:32;;;;;;;8.38;7.70;;;;;;;31.48;63.99;100383.16;5054687;28;70571;-42
2022/10/14 10:23:24;;;;;;;9.15;8.35;;;;;;;31.37;63.95;100387.50;5056858;28;66243;-43
2022/10/14 10:25:55;;;;;;;8.70;7.95;;;;;;;31.35;63.67;100368.75;5050278;28;70441;-42
2022/10/14 10:28:33;;;;;;;8.93;8.18;;;;;;;31.42;63.80;100382.22;5052563;28;65943;-43
2022/10/14 10:31:17;;;;;;;8.55;7.80;;;;;;;31.40;63.87;100387.06;5057893;28;69386;-42
2022/10/14 10:34:12;;;;;;;9.70;7.45;;;;;;;31.32;63.68;100381.97;5050699;28;65750;-42
2022/10/14 10:36:52;;;;;;;8.23;7.60;;;;;;;31.35;63.29;100373.34;5051409;28;70481;-42
2022/10/14 10:39:36;;;;;;;9.90;8.23;;;;;;;31.31;63.59;100388.41;5051828;28;66684;-43
2022/10/14 10:42:31;;;;;;;11.23;8.45;;;;;;;31.44;63.90;100393.66;5054588;28;70405;-43
2022/10/14 10:45:22;;;;;;;11.45;9.18;;;;;;;31.48;64.62;100396.69;5050904;28;66257;-42
2022/10/14 10:48:22;;;;;;;10.30;9.40;;;;;;;31.52;64.28;100396.00;5051411;28;69866;-42
2022/10/14 10:51:06;;;;;;;11.48;9.88;;;;;;;31.49;64.44;100404.63;5059963;28;66396;-41
2022/10/14 10:53:59;;;;;;;10.50;9.52;;;;;;;31.06;64.17;100326.34;5064822;27;70061;-44
2022/10/14 10:56:56;;;;;;;10.90;10.05;;;;;;;30.59;64.05;100262.09;5056060;28;66219;-45
2022/10/14 10:59:51;;;;;;;11.05;10.10;;;;;;;31.52;64.17;100406.03;5061263;28;69613;-42
2022/10/14 11:02:43;;;;;;;9.57;8.68;;;;;;;31.55;64.29;100410.97;5052193;28;66317;-41
2022/10/14 11:05:38;;;;;;;12.18;9.73;;;;;;;31.01;63.99;100329.75;5049583;28;70550;-42
2022/10/14 11:12:02;;;;;;;13.52;10.05;;;;;;;31.51;64.37;100410.63;5054737;28;69667;-43
2022/10/14 11:14:45;;;;;;;16.00;9.65;;;;;;;31.74;63.23;100426.06;5051862;28;66145;-42
2022/10/14 11:17:34;;;;;;;9.82;8.85;;;;;;;31.80;62.96;100429.72;5054981;28;70298;-43
2022/10/14 11:20:35;;;;;;;10.18;9.07;;;;;;;31.77;63.09;100425.59;5051812;27;66299;-42
2022/10/14 11:23:38;;;;;;;14.18;9.95;;;;;;;31.74;62.51;100425.25;5051539;28;70203;-43
2022/10/14 11:26:31;;;;;;;11.20;9.77;;;;;;;31.84;62.31;100436.28;5058441;28;65152;-42
2022/10/14 11:29:45;;;;;;;10.48;9.52;;;;;;;31.77;61.94;100435.59;5054767;28;70402;-43
2022/10/14 11:32:42;;;;;;;10.50;9.63;;;;;;;31.82;62.07;100444.69;5053391;28;65374;-48
2022/10/14 11:35:43;;;;;;;11.63;10.40;;;;;;;31.75;61.39;100443.16;5058558;28;70336;-43
2022/10/14 11:38:47;;;;;;;11.93;9.50;;;;;;;31.78;61.64;100442.66;5050936;28;66641;-42
2022/10/14 11:41:24;;;;;;;11.30;10.23;;;;;;;31.88;61.56;100445.63;5055863;28;69715;-48
2022/10/14 11:44:09;;;;;;;10.50;9.70;;;;;;;31.83;61.23;100451.75;5056724;28;66485;-44
2022/10/14 11:46:47;;;;;;;10.95;10.05;;;;;;;31.80;61.36;100435.13;5053970;28;69749;-40
2022/10/14 11:49:29;;;;;;;12.63;10.25;;;;;;;31.80;61.13;100440.56;5053397;28;66562;-43
2022/10/14 11:52:10;;;;;;;11.73;10.82;;;;;;;31.36;60.95;100373.13;5051294;28;70424;-43
2022/10/14 11:54:49;;;;;;;12.32;11.25;;;;;;;31.72;61.30;100451.75;5053769;28;65720;-43
2022/10/14 11:57:35;;;;;;;12.43;11.15;;;;;;;31.57;62.80;100458.47;5052577;28;70002;-43
2022/10/14 12:00:12;;;;;;;14.10;10.70;;;;;;;31.50;63.41;100457.75;5053135;28;66558;-41
2022/10/14 12:02:49;;;;;;;11.68;10.63;;;;;;;30.59;63.92;100321.66;5056951;27;69631;-43
2022/10/14 12:05:30;;;;;;;11.27;10.45;;;;;;;30.86;63.79;100380.84;5054052;28;65627;-42
2022/10/14 12:08:31;;;;;;;11.35;10.50;;;;;;;31.19;62.26;100474.31;5059717;28;69726;-42
2022/10/14 12:11:20;;;;;;;13.25;11.18;;;;;;;31.01;61.64;100448.94;5051608;28;66259;-42
2022/10/14 12:14:23;;;;;;;11.32;10.13;;;;;;;30.93;60.29;100479.06;5053146;28;70163;-43
2022/10/14 12:16:57;;;;;;;10.82;9.75;;;;;;;30.50;59.39;100415.06;5050148;27;66039;-44